sensor_id;sensor_type;location;lat;lon;timestamp;P1;durP1;ratioP1;P2;durP2;ratioP2
45368;SDS011;51342;55.250;37.668;2023-09-07T00:00:08;5.10;;;1.93;;
45368;SDS011;51342;55.250;37.668;2023-09-07T00:02:43;5.13;;;2.00;;
45368;SDS011;51342;55.250;37.668;2023-09-07T00:05:14;3.60;;;1.73;;
45368;SDS011;51342;55.250;37.668;2023-09-07T00:07:45;4.13;;;1.57;;
45368;SDS011;51342;55.250;37.668;2023-09-07T00:10:17;4.63;;;2.00;;
45368;SDS011;51342;55.250;37.668;2023-09-07T00:12:48;4.53;;;2.00;;
45368;SDS011;51342;55.250;37.668;2023-09-07T00:15:20;3.57;;;1.80;;
45368;SDS011;51342;55.250;37.668;2023-09-07T00:17:52;3.27;;;1.77;;
45368;SDS011;51342;55.250;37.668;2023-09-07T00:20:23;5.53;;;1.83;;
45368;SDS011;51342;55.250;37.668;2023-09-07T00:22:54;4.67;;;1.50;;
45368;SDS011;51342;55.250;37.668;2023-09-07T00:25:26;3.60;;;1.60;;
45368;SDS011;51342;55.250;37.668;2023-09-07T00:27:57;4.73;;;1.80;;
45368;SDS011;51342;55.250;37.668;2023-09-07T00:30:29;4.90;;;2.00;;
45368;SDS011;51342;55.250;37.668;2023-09-07T00:33:00;5.40;;;2.13;;
45368;SDS011;51342;55.250;37.668;2023-09-07T00:35:31;3.47;;;1.77;;
45368;SDS011;51342;55.250;37.668;2023-09-07T00:38:03;5.30;;;1.80;;
45368;SDS011;51342;55.250;37.668;2023-09-07T00:40:35;4.23;;;1.83;;
45368;SDS011;51342;55.250;37.668;2023-09-07T00:43:06;4.40;;;1.70;;
45368;SDS011;51342;55.250;37.668;2023-09-07T00:45:38;4.43;;;2.13;;
45368;SDS011;51342;55.250;37.668;2023-09-07T00:48:11;3.33;;;1.93;;
45368;SDS011;51342;55.250;37.668;2023-09-07T00:50:44;2.83;;;1.60;;
45368;SDS011;51342;55.250;37.668;2023-09-07T00:53:16;5.57;;;2.30;;
45368;SDS011;51342;55.250;37.668;2023-09-07T00:55:49;3.43;;;1.73;;
45368;SDS011;51342;55.250;37.668;2023-09-07T00:58:21;5.20;;;2.67;;
45368;SDS011;51342;55.250;37.668;2023-09-07T01:00:53;4.03;;;1.83;;
45368;SDS011;51342;55.250;37.668;2023-09-07T01:03:24;5.53;;;1.60;;
45368;SDS011;51342;55.250;37.668;2023-09-07T01:05:58;5.87;;;1.70;;
45368;SDS011;51342;55.250;37.668;2023-09-07T01:08:35;5.80;;;1.60;;
45368;SDS011;51342;55.250;37.668;2023-09-07T01:11:17;4.07;;;1.47;;
45368;SDS011;51342;55.250;37.668;2023-09-07T01:13:51;4.07;;;1.77;;
45368;SDS011;51342;55.250;37.668;2023-09-07T01:16:24;4.07;;;1.53;;
45368;SDS011;51342;55.250;37.668;2023-09-07T01:18:56;3.93;;;2.23;;
45368;SDS011;51342;55.250;37.668;2023-09-07T01:21:34;5.00;;;1.80;;
45368;SDS011;51342;55.250;37.668;2023-09-07T01:24:10;3.93;;;1.50;;
45368;SDS011;51342;55.250;37.668;2023-09-07T01:26:43;3.70;;;1.97;;
45368;SDS011;51342;55.250;37.668;2023-09-07T01:29:15;9.23;;;1.70;;
45368;SDS011;51342;55.250;37.668;2023-09-07T01:31:48;5.17;;;1.70;;
45368;SDS011;51342;55.250;37.668;2023-09-07T01:34:19;3.07;;;1.50;;
45368;SDS011;51342;55.250;37.668;2023-09-07T01:36:50;4.40;;;1.57;;
45368;SDS011;51342;55.250;37.668;2023-09-07T01:39:22;4.33;;;1.87;;
45368;SDS011;51342;55.250;37.668;2023-09-07T01:41:53;4.57;;;1.80;;
45368;SDS011;51342;55.250;37.668;2023-09-07T01:44:25;4.37;;;1.97;;
45368;SDS011;51342;55.250;37.668;2023-09-07T01:46:57;3.77;;;2.17;;
45368;SDS011;51342;55.250;37.668;2023-09-07T01:49:29;2.27;;;1.30;;
45368;SDS011;51342;55.250;37.668;2023-09-07T01:52:01;3.23;;;1.30;;
45368;SDS011;51342;55.250;37.668;2023-09-07T01:54:33;4.13;;;1.53;;
45368;SDS011;51342;55.250;37.668;2023-09-07T01:57:05;4.17;;;1.50;;
45368;SDS011;51342;55.250;37.668;2023-09-07T01:59:36;4.47;;;1.30;;
45368;SDS011;51342;55.250;37.668;2023-09-07T02:02:07;3.70;;;1.40;;
45368;SDS011;51342;55.250;37.668;2023-09-07T02:04:39;3.57;;;1.53;;
45368;SDS011;51342;55.250;37.668;2023-09-07T02:07:12;3.77;;;1.60;;
45368;SDS011;51342;55.250;37.668;2023-09-07T02:09:44;3.73;;;1.10;;
45368;SDS011;51342;55.250;37.668;2023-09-07T02:12:15;3.20;;;1.40;;
45368;SDS011;51342;55.250;37.668;2023-09-07T02:14:47;4.17;;;1.40;;
45368;SDS011;51342;55.250;37.668;2023-09-07T02:17:18;4.20;;;1.43;;
45368;SDS011;51342;55.250;37.668;2023-09-07T02:19:49;3.97;;;1.70;;
45368;SDS011;51342;55.250;37.668;2023-09-07T02:22:21;3.80;;;1.20;;
45368;SDS011;51342;55.250;37.668;2023-09-07T02:24:52;2.83;;;1.40;;
45368;SDS011;51342;55.250;37.668;2023-09-07T02:27:24;3.10;;;1.60;;
45368;SDS011;51342;55.250;37.668;2023-09-07T02:29:55;3.67;;;1.50;;
45368;SDS011;51342;55.250;37.668;2023-09-07T02:32:27;3.37;;;1.10;;
45368;SDS011;51342;55.250;37.668;2023-09-07T02:34:59;2.60;;;1.13;;
45368;SDS011;51342;55.250;37.668;2023-09-07T02:37:30;2.70;;;1.10;;
45368;SDS011;51342;55.250;37.668;2023-09-07T02:40:01;4.10;;;1.50;;
45368;SDS011;51342;55.250;37.668;2023-09-07T02:42:37;3.80;;;1.20;;
45368;SDS011;51342;55.250;37.668;2023-09-07T02:45:12;3.57;;;1.47;;
45368;SDS011;51342;55.250;37.668;2023-09-07T02:47:45;4.13;;;1.30;;
45368;SDS011;51342;55.250;37.668;2023-09-07T02:50:17;5.77;;;1.70;;
45368;SDS011;51342;55.250;37.668;2023-09-07T02:52:48;3.67;;;1.33;;
45368;SDS011;51342;55.250;37.668;2023-09-07T02:55:20;3.27;;;1.50;;
45368;SDS011;51342;55.250;37.668;2023-09-07T02:57:51;2.83;;;1.40;;
45368;SDS011;51342;55.250;37.668;2023-09-07T03:00:23;4.47;;;1.47;;
45368;SDS011;51342;55.250;37.668;2023-09-07T03:02:55;2.40;;;1.33;;
45368;SDS011;51342;55.250;37.668;2023-09-07T03:05:27;5.37;;;1.90;;
45368;SDS011;51342;55.250;37.668;2023-09-07T03:07:59;4.90;;;1.60;;
45368;SDS011;51342;55.250;37.668;2023-09-07T03:10:30;5.17;;;2.23;;
45368;SDS011;51342;55.250;37.668;2023-09-07T03:13:02;5.90;;;2.30;;
45368;SDS011;51342;55.250;37.668;2023-09-07T03:15:34;3.27;;;2.07;;
45368;SDS011;51342;55.250;37.668;2023-09-07T03:18:09;5.20;;;2.33;;
45368;SDS011;51342;55.250;37.668;2023-09-07T03:20:42;6.20;;;2.43;;
45368;SDS011;51342;55.250;37.668;2023-09-07T03:23:14;5.10;;;3.10;;
45368;SDS011;51342;55.250;37.668;2023-09-07T03:25:46;7.47;;;3.80;;
45368;SDS011;51342;55.250;37.668;2023-09-07T03:28:17;8.03;;;3.97;;
45368;SDS011;51342;55.250;37.668;2023-09-07T03:30:51;7.63;;;3.40;;
45368;SDS011;51342;55.250;37.668;2023-09-07T03:33:24;7.20;;;3.90;;
45368;SDS011;51342;55.250;37.668;2023-09-07T03:35:55;6.13;;;3.70;;
45368;SDS011;51342;55.250;37.668;2023-09-07T03:38:30;7.00;;;3.47;;
45368;SDS011;51342;55.250;37.668;2023-09-07T03:41:01;6.50;;;2.77;;
45368;SDS011;51342;55.250;37.668;2023-09-07T03:43:33;5.77;;;2.63;;
45368;SDS011;51342;55.250;37.668;2023-09-07T03:46:05;4.60;;;2.30;;
45368;SDS011;51342;55.250;37.668;2023-09-07T03:48:36;3.97;;;1.77;;
45368;SDS011;51342;55.250;37.668;2023-09-07T03:51:08;2.67;;;1.70;;
45368;SDS011;51342;55.250;37.668;2023-09-07T03:53:40;3.77;;;1.63;;
45368;SDS011;51342;55.250;37.668;2023-09-07T03:56:11;4.30;;;1.40;;
45368;SDS011;51342;55.250;37.668;2023-09-07T03:58:43;3.90;;;1.73;;
45368;SDS011;51342;55.250;37.668;2023-09-07T04:01:14;5.57;;;1.57;;
45368;SDS011;51342;55.250;37.668;2023-09-07T04:03:45;3.20;;;1.60;;
45368;SDS011;51342;55.250;37.668;2023-09-07T04:06:17;2.23;;;1.20;;
45368;SDS011;51342;55.250;37.668;2023-09-07T04:08:48;3.25;;;1.60;;
45368;SDS011;51342;55.250;37.668;2023-09-07T04:11:19;3.20;;;1.30;;
45368;SDS011;51342;55.250;37.668;2023-09-07T04:13:51;3.25;;;1.30;;
45368;SDS011;51342;55.250;37.668;2023-09-07T04:16:22;2.53;;;1.30;;
45368;SDS011;51342;55.250;37.668;2023-09-07T04:18:54;2.00;;;1.25;;
45368;SDS011;51342;55.250;37.668;2023-09-07T04:21:25;3.78;;;1.27;;
45368;SDS011;51342;55.250;37.668;2023-09-07T04:23:56;3.13;;;1.40;;
45368;SDS011;51342;55.250;37.668;2023-09-07T04:26:28;4.93;;;1.27;;
45368;SDS011;51342;55.250;37.668;2023-09-07T04:29:00;3.15;;;1.63;;
45368;SDS011;51342;55.250;37.668;2023-09-07T04:31:31;2.50;;;1.15;;
45368;SDS011;51342;55.250;37.668;2023-09-07T04:34:03;4.80;;;1.55;;
45368;SDS011;51342;55.250;37.668;2023-09-07T04:36:34;2.92;;;1.30;;
45368;SDS011;51342;55.250;37.668;2023-09-07T04:39:07;2.30;;;1.02;;
45368;SDS011;51342;55.250;37.668;2023-09-07T04:41:38;2.30;;;1.17;;
45368;SDS011;51342;55.250;37.668;2023-09-07T04:44:09;3.78;;;1.50;;
45368;SDS011;51342;55.250;37.668;2023-09-07T04:46:41;3.17;;;1.23;;
45368;SDS011;51342;55.250;37.668;2023-09-07T04:49:14;3.15;;;1.38;;
45368;SDS011;51342;55.250;37.668;2023-09-07T04:51:45;2.55;;;1.10;;
45368;SDS011;51342;55.250;37.668;2023-09-07T04:54:17;2.25;;;1.05;;
45368;SDS011;51342;55.250;37.668;2023-09-07T04:56:48;3.92;;;1.20;;
45368;SDS011;51342;55.250;37.668;2023-09-07T04:59:20;1.83;;;1.00;;
45368;SDS011;51342;55.250;37.668;2023-09-07T05:01:51;2.38;;;1.20;;
45368;SDS011;51342;55.250;37.668;2023-09-07T05:04:22;1.50;;;0.82;;
45368;SDS011;51342;55.250;37.668;2023-09-07T05:06:56;1.58;;;0.90;;
45368;SDS011;51342;55.250;37.668;2023-09-07T05:09:27;4.07;;;0.93;;
45368;SDS011;51342;55.250;37.668;2023-09-07T05:12:00;1.95;;;0.85;;
45368;SDS011;51342;55.250;37.668;2023-09-07T05:14:32;2.03;;;0.90;;
45368;SDS011;51342;55.250;37.668;2023-09-07T05:17:03;2.05;;;1.00;;
45368;SDS011;51342;55.250;37.668;2023-09-07T05:19:35;1.88;;;0.90;;
45368;SDS011;51342;55.250;37.668;2023-09-07T05:22:06;4.28;;;0.98;;
45368;SDS011;51342;55.250;37.668;2023-09-07T05:24:38;2.72;;;0.90;;
45368;SDS011;51342;55.250;37.668;2023-09-07T05:27:10;1.30;;;0.85;;
45368;SDS011;51342;55.250;37.668;2023-09-07T05:29:42;2.85;;;1.13;;
45368;SDS011;51342;55.250;37.668;2023-09-07T05:32:13;2.00;;;0.95;;
45368;SDS011;51342;55.250;37.668;2023-09-07T05:34:45;2.30;;;0.60;;
45368;SDS011;51342;55.250;37.668;2023-09-07T05:37:16;1.77;;;0.80;;
45368;SDS011;51342;55.250;37.668;2023-09-07T05:39:48;1.75;;;0.82;;
45368;SDS011;51342;55.250;37.668;2023-09-07T05:42:20;1.25;;;0.60;;
45368;SDS011;51342;55.250;37.668;2023-09-07T05:44:51;2.83;;;0.95;;
45368;SDS011;51342;55.250;37.668;2023-09-07T05:47:23;1.75;;;0.70;;
45368;SDS011;51342;55.250;37.668;2023-09-07T05:49:57;4.10;;;0.88;;
45368;SDS011;51342;55.250;37.668;2023-09-07T05:52:28;2.65;;;0.80;;
45368;SDS011;51342;55.250;37.668;2023-09-07T05:55:00;1.33;;;0.70;;
45368;SDS011;51342;55.250;37.668;2023-09-07T05:57:32;3.67;;;1.10;;
45368;SDS011;51342;55.250;37.668;2023-09-07T06:00:03;1.88;;;0.68;;
45368;SDS011;51342;55.250;37.668;2023-09-07T06:02:45;1.70;;;0.85;;
45368;SDS011;51342;55.250;37.668;2023-09-07T06:05:17;2.30;;;0.90;;
45368;SDS011;51342;55.250;37.668;2023-09-07T06:07:49;3.28;;;0.85;;
45368;SDS011;51342;55.250;37.668;2023-09-07T06:10:21;1.70;;;0.82;;
45368;SDS011;51342;55.250;37.668;2023-09-07T06:12:54;4.55;;;0.90;;
45368;SDS011;51342;55.250;37.668;2023-09-07T06:15:26;1.70;;;0.88;;
45368;SDS011;51342;55.250;37.668;2023-09-07T06:17:58;1.30;;;0.77;;
45368;SDS011;51342;55.250;37.668;2023-09-07T06:20:29;2.55;;;0.90;;
45368;SDS011;51342;55.250;37.668;2023-09-07T06:23:03;3.28;;;0.88;;
45368;SDS011;51342;55.250;37.668;2023-09-07T06:25:35;2.42;;;0.63;;
45368;SDS011;51342;55.250;37.668;2023-09-07T06:28:06;2.22;;;0.80;;
45368;SDS011;51342;55.250;37.668;2023-09-07T06:30:38;2.53;;;0.80;;
45368;SDS011;51342;55.250;37.668;2023-09-07T06:33:09;1.25;;;0.70;;
45368;SDS011;51342;55.250;37.668;2023-09-07T06:35:41;2.97;;;0.80;;
45368;SDS011;51342;55.250;37.668;2023-09-07T06:38:13;2.60;;;0.70;;
45368;SDS011;51342;55.250;37.668;2023-09-07T06:40:50;1.27;;;0.60;;
45368;SDS011;51342;55.250;37.668;2023-09-07T06:43:23;2.83;;;0.93;;
45368;SDS011;51342;55.250;37.668;2023-09-07T06:46:01;2.63;;;0.80;;
45368;SDS011;51342;55.250;37.668;2023-09-07T06:48:37;1.35;;;0.57;;
45368;SDS011;51342;55.250;37.668;2023-09-07T06:51:09;3.28;;;0.77;;
45368;SDS011;51342;55.250;37.668;2023-09-07T06:53:40;3.58;;;0.90;;
45368;SDS011;51342;55.250;37.668;2023-09-07T06:56:12;2.28;;;0.90;;
45368;SDS011;51342;55.250;37.668;2023-09-07T06:58:44;1.60;;;0.70;;
45368;SDS011;51342;55.250;37.668;2023-09-07T07:01:15;3.05;;;1.00;;
45368;SDS011;51342;55.250;37.668;2023-09-07T07:03:47;2.97;;;0.70;;
45368;SDS011;51342;55.250;37.668;2023-09-07T07:06:18;3.35;;;0.90;;
45368;SDS011;51342;55.250;37.668;2023-09-07T07:08:51;2.15;;;0.73;;
45368;SDS011;51342;55.250;37.668;2023-09-07T07:11:23;2.33;;;1.00;;
45368;SDS011;51342;55.250;37.668;2023-09-07T07:13:54;1.88;;;0.85;;
45368;SDS011;51342;55.250;37.668;2023-09-07T07:16:26;3.35;;;1.15;;
45368;SDS011;51342;55.250;37.668;2023-09-07T07:18:57;1.50;;;0.60;;
45368;SDS011;51342;55.250;37.668;2023-09-07T07:21:29;2.25;;;0.60;;
45368;SDS011;51342;55.250;37.668;2023-09-07T07:24:00;2.63;;;1.02;;
45368;SDS011;51342;55.250;37.668;2023-09-07T07:26:32;2.88;;;0.80;;
45368;SDS011;51342;55.250;37.668;2023-09-07T07:29:05;2.60;;;0.70;;
45368;SDS011;51342;55.250;37.668;2023-09-07T07:31:37;1.42;;;0.50;;
45368;SDS011;51342;55.250;37.668;2023-09-07T07:34:10;2.63;;;0.70;;
45368;SDS011;51342;55.250;37.668;2023-09-07T07:36:41;1.52;;;0.80;;
45368;SDS011;51342;55.250;37.668;2023-09-07T07:39:13;2.13;;;0.90;;
45368;SDS011;51342;55.250;37.668;2023-09-07T07:41:47;1.95;;;0.93;;
45368;SDS011;51342;55.250;37.668;2023-09-07T07:44:18;1.45;;;0.70;;
45368;SDS011;51342;55.250;37.668;2023-09-07T07:46:51;1.58;;;0.65;;
45368;SDS011;51342;55.250;37.668;2023-09-07T07:49:23;2.33;;;0.70;;
45368;SDS011;51342;55.250;37.668;2023-09-07T07:51:55;3.15;;;0.85;;
45368;SDS011;51342;55.250;37.668;2023-09-07T07:54:28;0.90;;;0.70;;
45368;SDS011;51342;55.250;37.668;2023-09-07T07:57:02;1.85;;;0.98;;
45368;SDS011;51342;55.250;37.668;2023-09-07T07:59:34;1.30;;;0.82;;
45368;SDS011;51342;55.250;37.668;2023-09-07T08:02:06;2.58;;;0.80;;
45368;SDS011;51342;55.250;37.668;2023-09-07T08:04:37;1.92;;;0.80;;
45368;SDS011;51342;55.250;37.668;2023-09-07T08:07:10;2.15;;;0.60;;
45368;SDS011;51342;55.250;37.668;2023-09-07T08:09:43;3.35;;;0.60;;
45368;SDS011;51342;55.250;37.668;2023-09-07T08:12:15;2.17;;;0.70;;
45368;SDS011;51342;55.250;37.668;2023-09-07T08:14:46;2.10;;;0.70;;
45368;SDS011;51342;55.250;37.668;2023-09-07T08:17:18;2.03;;;0.60;;
45368;SDS011;51342;55.250;37.668;2023-09-07T08:19:51;2.30;;;0.57;;
45368;SDS011;51342;55.250;37.668;2023-09-07T08:22:29;0.60;;;0.50;;
45368;SDS011;51342;55.250;37.668;2023-09-07T08:25:00;1.33;;;0.50;;
45368;SDS011;51342;55.250;37.668;2023-09-07T08:27:32;2.40;;;0.82;;
45368;SDS011;51342;55.250;37.668;2023-09-07T08:30:04;2.53;;;0.65;;
45368;SDS011;51342;55.250;37.668;2023-09-07T08:32:37;2.85;;;0.63;;
45368;SDS011;51342;55.250;37.668;2023-09-07T08:35:09;1.60;;;0.52;;
45368;SDS011;51342;55.250;37.668;2023-09-07T08:37:43;2.05;;;0.63;;
45368;SDS011;51342;55.250;37.668;2023-09-07T08:40:15;1.27;;;0.47;;
45368;SDS011;51342;55.250;37.668;2023-09-07T08:42:47;2.35;;;0.85;;
45368;SDS011;51342;55.250;37.668;2023-09-07T08:45:21;1.85;;;0.40;;
45368;SDS011;51342;55.250;37.668;2023-09-07T08:47:53;1.40;;;0.40;;
45368;SDS011;51342;55.250;37.668;2023-09-07T08:50:27;4.55;;;0.70;;
45368;SDS011;51342;55.250;37.668;2023-09-07T08:52:59;2.67;;;0.70;;
45368;SDS011;51342;55.250;37.668;2023-09-07T08:55:31;5.32;;;0.60;;
45368;SDS011;51342;55.250;37.668;2023-09-07T08:58:03;2.60;;;0.60;;
45368;SDS011;51342;55.250;37.668;2023-09-07T09:00:35;5.90;;;1.52;;
45368;SDS011;51342;55.250;37.668;2023-09-07T09:03:08;1.65;;;0.60;;
45368;SDS011;51342;55.250;37.668;2023-09-07T09:05:40;2.25;;;0.50;;
45368;SDS011;51342;55.250;37.668;2023-09-07T09:08:12;4.05;;;0.60;;
45368;SDS011;51342;55.250;37.668;2023-09-07T09:10:43;1.85;;;0.70;;
45368;SDS011;51342;55.250;37.668;2023-09-07T09:13:15;3.92;;;0.70;;
45368;SDS011;51342;55.250;37.668;2023-09-07T09:15:47;4.65;;;0.77;;
45368;SDS011;51342;55.250;37.668;2023-09-07T09:18:19;1.75;;;0.52;;
45368;SDS011;51342;55.250;37.668;2023-09-07T09:20:50;1.65;;;0.50;;
45368;SDS011;51342;55.250;37.668;2023-09-07T09:23:22;1.65;;;0.60;;
45368;SDS011;51342;55.250;37.668;2023-09-07T09:25:53;4.05;;;0.68;;
45368;SDS011;51342;55.250;37.668;2023-09-07T09:28:25;2.67;;;0.65;;
45368;SDS011;51342;55.250;37.668;2023-09-07T09:30:58;1.17;;;0.60;;
45368;SDS011;51342;55.250;37.668;2023-09-07T09:33:31;0.90;;;0.50;;
45368;SDS011;51342;55.250;37.668;2023-09-07T09:36:04;2.05;;;0.50;;
45368;SDS011;51342;55.250;37.668;2023-09-07T09:38:36;2.78;;;0.85;;
45368;SDS011;51342;55.250;37.668;2023-09-07T09:41:08;2.00;;;0.50;;
45368;SDS011;51342;55.250;37.668;2023-09-07T09:43:41;2.42;;;0.70;;
45368;SDS011;51342;55.250;37.668;2023-09-07T09:46:13;2.53;;;0.57;;
45368;SDS011;51342;55.250;37.668;2023-09-07T09:48:45;2.17;;;0.70;;
45368;SDS011;51342;55.250;37.668;2023-09-07T09:51:18;1.42;;;0.60;;
45368;SDS011;51342;55.250;37.668;2023-09-07T09:53:49;1.35;;;0.77;;
45368;SDS011;51342;55.250;37.668;2023-09-07T09:56:22;1.48;;;0.60;;
45368;SDS011;51342;55.250;37.668;2023-09-07T09:58:53;2.42;;;0.73;;
45368;SDS011;51342;55.250;37.668;2023-09-07T10:01:25;1.75;;;0.50;;
45368;SDS011;51342;55.250;37.668;2023-09-07T10:03:57;2.03;;;0.63;;
45368;SDS011;51342;55.250;37.668;2023-09-07T10:06:29;4.32;;;0.73;;
45368;SDS011;51342;55.250;37.668;2023-09-07T10:09:07;1.58;;;0.65;;
45368;SDS011;51342;55.250;37.668;2023-09-07T10:11:41;1.10;;;0.50;;
45368;SDS011;51342;55.250;37.668;2023-09-07T10:14:13;3.70;;;0.80;;
45368;SDS011;51342;55.250;37.668;2023-09-07T10:16:46;1.08;;;0.50;;
45368;SDS011;51342;55.250;37.668;2023-09-07T10:19:24;3.53;;;0.70;;
45368;SDS011;51342;55.250;37.668;2023-09-07T10:21:57;3.05;;;0.50;;
45368;SDS011;51342;55.250;37.668;2023-09-07T10:24:34;1.42;;;0.50;;
45368;SDS011;51342;55.250;37.668;2023-09-07T10:27:11;0.95;;;0.50;;
45368;SDS011;51342;55.250;37.668;2023-09-07T10:29:46;1.25;;;0.50;;
45368;SDS011;51342;55.250;37.668;2023-09-07T10:32:23;3.90;;;0.77;;
45368;SDS011;51342;55.250;37.668;2023-09-07T10:34:55;1.17;;;0.45;;
45368;SDS011;51342;55.250;37.668;2023-09-07T10:37:28;4.28;;;0.80;;
45368;SDS011;51342;55.250;37.668;2023-09-07T10:40:00;1.38;;;0.57;;
45368;SDS011;51342;55.250;37.668;2023-09-07T10:42:32;3.22;;;0.80;;
45368;SDS011;51342;55.250;37.668;2023-09-07T10:45:10;1.27;;;0.50;;
45368;SDS011;51342;55.250;37.668;2023-09-07T10:47:46;1.75;;;0.63;;
45368;SDS011;51342;55.250;37.668;2023-09-07T10:50:18;1.60;;;0.63;;
45368;SDS011;51342;55.250;37.668;2023-09-07T10:52:50;1.40;;;0.45;;
45368;SDS011;51342;55.250;37.668;2023-09-07T10:55:22;1.33;;;0.52;;
45368;SDS011;51342;55.250;37.668;2023-09-07T10:57:53;1.77;;;0.55;;
45368;SDS011;51342;55.250;37.668;2023-09-07T11:00:25;4.38;;;0.75;;
45368;SDS011;51342;55.250;37.668;2023-09-07T11:03:06;2.40;;;0.70;;
45368;SDS011;51342;55.250;37.668;2023-09-07T11:05:41;2.75;;;0.85;;
45368;SDS011;51342;55.250;37.668;2023-09-07T11:08:13;1.25;;;0.60;;
45368;SDS011;51342;55.250;37.668;2023-09-07T11:10:45;3.38;;;0.43;;
45368;SDS011;51342;55.250;37.668;2023-09-07T11:13:17;1.50;;;0.57;;
45368;SDS011;51342;55.250;37.668;2023-09-07T11:15:49;1.52;;;0.60;;
45368;SDS011;51342;55.250;37.668;2023-09-07T11:18:21;1.38;;;0.73;;
45368;SDS011;51342;55.250;37.668;2023-09-07T11:20:53;0.93;;;0.40;;
45368;SDS011;51342;55.250;37.668;2023-09-07T11:23:25;2.05;;;0.60;;
45368;SDS011;51342;55.250;37.668;2023-09-07T11:25:57;2.05;;;0.68;;
45368;SDS011;51342;55.250;37.668;2023-09-07T11:28:29;0.88;;;0.47;;
45368;SDS011;51342;55.250;37.668;2023-09-07T11:31:01;1.60;;;0.70;;
45368;SDS011;51342;55.250;37.668;2023-09-07T11:33:33;2.00;;;0.52;;
45368;SDS011;51342;55.250;37.668;2023-09-07T11:36:05;2.28;;;0.60;;
45368;SDS011;51342;55.250;37.668;2023-09-07T11:38:36;1.05;;;0.50;;
45368;SDS011;51342;55.250;37.668;2023-09-07T11:41:11;1.05;;;0.60;;
45368;SDS011;51342;55.250;37.668;2023-09-07T11:43:46;0.98;;;0.52;;
45368;SDS011;51342;55.250;37.668;2023-09-07T11:46:18;2.75;;;0.70;;
45368;SDS011;51342;55.250;37.668;2023-09-07T11:48:49;2.17;;;0.70;;
45368;SDS011;51342;55.250;37.668;2023-09-07T11:51:21;1.95;;;0.65;;
45368;SDS011;51342;55.250;37.668;2023-09-07T11:53:52;3.83;;;0.60;;
45368;SDS011;51342;55.250;37.668;2023-09-07T11:56:24;3.05;;;0.50;;
45368;SDS011;51342;55.250;37.668;2023-09-07T11:58:56;3.60;;;0.70;;
45368;SDS011;51342;55.250;37.668;2023-09-07T12:01:28;2.20;;;0.60;;
45368;SDS011;51342;55.250;37.668;2023-09-07T12:04:01;2.45;;;0.60;;
45368;SDS011;51342;55.250;37.668;2023-09-07T12:06:35;2.28;;;0.85;;
45368;SDS011;51342;55.250;37.668;2023-09-07T12:09:10;1.60;;;0.82;;
45368;SDS011;51342;55.250;37.668;2023-09-07T12:11:41;0.82;;;0.40;;
45368;SDS011;51342;55.250;37.668;2023-09-07T12:14:14;2.83;;;0.70;;
45368;SDS011;51342;55.250;37.668;2023-09-07T12:16:46;2.35;;;0.80;;
45368;SDS011;51342;55.250;37.668;2023-09-07T12:19:18;2.03;;;0.73;;
45368;SDS011;51342;55.250;37.668;2023-09-07T12:21:51;0.85;;;0.50;;
45368;SDS011;51342;55.250;37.668;2023-09-07T12:24:22;2.35;;;0.82;;
45368;SDS011;51342;55.250;37.668;2023-09-07T12:26:54;1.40;;;0.60;;
45368;SDS011;51342;55.250;37.668;2023-09-07T12:29:26;1.30;;;0.60;;
45368;SDS011;51342;55.250;37.668;2023-09-07T12:31:57;3.60;;;0.55;;
45368;SDS011;51342;55.250;37.668;2023-09-07T12:34:29;0.88;;;0.60;;
45368;SDS011;51342;55.250;37.668;2023-09-07T12:37:01;3.83;;;0.68;;
45368;SDS011;51342;55.250;37.668;2023-09-07T12:39:35;1.45;;;0.60;;
45368;SDS011;51342;55.250;37.668;2023-09-07T12:42:06;2.30;;;0.60;;
45368;SDS011;51342;55.250;37.668;2023-09-07T12:44:38;2.47;;;0.80;;
45368;SDS011;51342;55.250;37.668;2023-09-07T12:47:09;3.70;;;0.98;;
45368;SDS011;51342;55.250;37.668;2023-09-07T12:49:44;2.22;;;1.00;;
45368;SDS011;51342;55.250;37.668;2023-09-07T12:52:15;3.15;;;0.90;;
45368;SDS011;51342;55.250;37.668;2023-09-07T12:54:47;2.28;;;0.85;;
45368;SDS011;51342;55.250;37.668;2023-09-07T12:57:19;2.50;;;1.15;;
45368;SDS011;51342;55.250;37.668;2023-09-07T12:59:51;3.33;;;0.80;;
45368;SDS011;51342;55.250;37.668;2023-09-07T13:02:22;2.58;;;0.80;;
45368;SDS011;51342;55.250;37.668;2023-09-07T13:04:54;2.17;;;0.68;;
45368;SDS011;51342;55.250;37.668;2023-09-07T13:07:29;4.50;;;0.85;;
45368;SDS011;51342;55.250;37.668;2023-09-07T13:10:01;1.80;;;0.80;;
45368;SDS011;51342;55.250;37.668;2023-09-07T13:12:36;1.25;;;0.85;;
45368;SDS011;51342;55.250;37.668;2023-09-07T13:15:07;2.00;;;0.80;;
45368;SDS011;51342;55.250;37.668;2023-09-07T13:17:39;1.60;;;0.68;;
45368;SDS011;51342;55.250;37.668;2023-09-07T13:20:11;2.95;;;0.98;;
45368;SDS011;51342;55.250;37.668;2023-09-07T13:22:43;1.40;;;0.73;;
45368;SDS011;51342;55.250;37.668;2023-09-07T13:25:15;1.60;;;0.55;;
45368;SDS011;51342;55.250;37.668;2023-09-07T13:27:46;1.98;;;0.70;;
45368;SDS011;51342;55.250;37.668;2023-09-07T13:30:18;1.60;;;0.80;;
45368;SDS011;51342;55.250;37.668;2023-09-07T13:32:49;1.75;;;0.70;;
45368;SDS011;51342;55.250;37.668;2023-09-07T13:35:21;3.55;;;0.98;;
45368;SDS011;51342;55.250;37.668;2023-09-07T13:37:52;2.85;;;0.80;;
45368;SDS011;51342;55.250;37.668;2023-09-07T13:40:24;1.88;;;0.65;;
45368;SDS011;51342;55.250;37.668;2023-09-07T13:42:55;1.38;;;0.60;;
45368;SDS011;51342;55.250;37.668;2023-09-07T13:45:28;2.30;;;0.93;;
45368;SDS011;51342;55.250;37.668;2023-09-07T13:48:02;4.80;;;1.10;;
45368;SDS011;51342;55.250;37.668;2023-09-07T13:50:34;1.40;;;0.88;;
45368;SDS011;51342;55.250;37.668;2023-09-07T13:53:05;2.53;;;0.93;;
45368;SDS011;51342;55.250;37.668;2023-09-07T13:55:37;4.03;;;1.15;;
45368;SDS011;51342;55.250;37.668;2023-09-07T13:58:10;1.17;;;0.77;;
45368;SDS011;51342;55.250;37.668;2023-09-07T14:00:42;1.77;;;0.90;;
45368;SDS011;51342;55.250;37.668;2023-09-07T14:03:14;3.03;;;0.77;;
45368;SDS011;51342;55.250;37.668;2023-09-07T14:05:45;1.38;;;0.73;;
45368;SDS011;51342;55.250;37.668;2023-09-07T14:08:17;2.22;;;0.70;;
45368;SDS011;51342;55.250;37.668;2023-09-07T14:10:54;3.90;;;0.88;;
45368;SDS011;51342;55.250;37.668;2023-09-07T14:13:26;1.95;;;0.80;;
45368;SDS011;51342;55.250;37.668;2023-09-07T14:16:01;5.20;;;1.10;;
45368;SDS011;51342;55.250;37.668;2023-09-07T14:18:32;2.53;;;0.90;;
45368;SDS011;51342;55.250;37.668;2023-09-07T14:21:04;4.38;;;1.10;;
45368;SDS011;51342;55.250;37.668;2023-09-07T14:23:38;2.75;;;0.80;;
45368;SDS011;51342;55.250;37.668;2023-09-07T14:26:10;1.70;;;0.70;;
45368;SDS011;51342;55.250;37.668;2023-09-07T14:28:41;1.23;;;0.68;;
45368;SDS011;51342;55.250;37.668;2023-09-07T14:31:13;2.45;;;0.75;;
45368;SDS011;51342;55.250;37.668;2023-09-07T14:33:44;3.10;;;0.90;;
45368;SDS011;51342;55.250;37.668;2023-09-07T14:36:16;3.53;;;1.00;;
45368;SDS011;51342;55.250;37.668;2023-09-07T14:38:47;3.33;;;1.10;;
45368;SDS011;51342;55.250;37.668;2023-09-07T14:41:19;1.95;;;1.00;;
45368;SDS011;51342;55.250;37.668;2023-09-07T14:43:50;2.70;;;0.90;;
45368;SDS011;51342;55.250;37.668;2023-09-07T14:46:22;2.42;;;1.13;;
45368;SDS011;51342;55.250;37.668;2023-09-07T14:48:55;1.98;;;1.17;;
45368;SDS011;51342;55.250;37.668;2023-09-07T14:51:28;2.17;;;0.75;;
45368;SDS011;51342;55.250;37.668;2023-09-07T14:53:59;2.50;;;0.93;;
45368;SDS011;51342;55.250;37.668;2023-09-07T14:56:31;5.28;;;1.30;;
45368;SDS011;51342;55.250;37.668;2023-09-07T14:59:06;2.47;;;1.20;;
45368;SDS011;51342;55.250;37.668;2023-09-07T15:01:38;1.83;;;1.00;;